createdAt,value
2019-01-18T17:03:30.534Z,67.20
2019-01-18T17:06:09.840Z,66.70
2019-01-18T17:08:39.440Z,67.00
2019-01-18T17:11:09.082Z,66.20
2019-01-18T17:13:38.610Z,66.80
2019-01-18T17:16:08.161Z,65.20
2019-01-18T17:18:37.823Z,69.50
2019-01-18T17:21:11.762Z,68.50
2019-01-18T17:23:42.019Z,68.90
2019-01-18T17:26:11.864Z,68.20
2019-01-18T17:28:41.280Z,67.60
2019-01-18T17:31:10.728Z,67.10
2019-01-18T17:33:40.143Z,67.30
2019-01-18T17:36:18.764Z,67.50
2019-01-18T17:39:10.707Z,68.10
2019-01-18T17:42:02.878Z,68.10
2019-01-18T17:44:41.180Z,67.90
2019-01-18T17:47:24.952Z,68.40
2019-01-18T17:50:24.559Z,68.20
2019-01-18T17:53:16.653Z,70.80
2019-01-18T17:56:02.124Z,69.60
2019-01-18T17:58:59.047Z,69.60
2019-01-18T18:01:40.763Z,69.10
2019-01-18T18:04:34.396Z,69.50
2019-01-18T18:07:23.821Z,72.00
2019-01-18T18:09:59.376Z,67.00
2019-01-18T18:13:08.416Z,69.30
2019-01-18T18:15:48.412Z,69.40
2019-01-18T18:18:32.937Z,70.20
2019-01-18T18:21:08.569Z,70.70
2019-01-18T18:23:56.087Z,70.30
2019-01-18T18:26:31.451Z,70.40
2019-01-18T18:29:23.649Z,70.10
2019-01-18T18:32:11.180Z,69.40
2019-01-18T18:34:58.707Z,70.30
2019-01-18T18:37:37.362Z,70.30
2019-01-18T18:40:21.536Z,72.00
2019-01-18T18:42:54.120Z,70.60
2019-01-18T18:45:43.152Z,70.20
2019-01-18T18:48:24.633Z,71.00
2019-01-18T18:51:12.788Z,71.00
2019-01-18T18:54:06.724Z,71.40
2019-01-18T18:56:53.982Z,71.30
2019-01-18T18:59:54.724Z,71.50
2019-01-18T19:02:42.275Z,75.10
2019-01-18T19:05:31.028Z,73.60
2019-01-18T19:08:12.327Z,72.80
2019-01-18T19:11:02.445Z,72.30
2019-01-18T19:13:54.080Z,71.80
2019-01-18T19:16:32.276Z,71.50
2019-01-18T19:19:16.417Z,72.00
2019-01-18T19:22:23.651Z,71.70
2019-01-18T19:25:23.201Z,71.80
2019-01-18T19:28:01.379Z,73.20
2019-01-18T19:30:53.159Z,72.30
2019-01-18T19:33:48.815Z,72.50
2019-01-18T19:39:40.958Z,72.80
2019-01-18T19:42:31.598Z,73.30
2019-01-18T19:45:09.751Z,74.70
2019-01-18T19:47:48.060Z,72.50
2019-01-18T19:50:47.007Z,73.10
2019-01-18T19:53:25.723Z,73.40
2019-01-18T19:56:13.574Z,74.00
2019-01-18T19:59:09.743Z,74.00
2019-01-18T20:01:57.223Z,74.20
2019-01-18T20:04:33.377Z,74.70
2019-01-18T20:07:15.902Z,74.40
2019-01-18T20:10:13.907Z,74.20
2019-01-18T20:13:10.559Z,76.40
2019-01-18T20:15:49.806Z,74.80
2019-01-18T20:18:40.318Z,74.30
2019-01-18T20:21:33.975Z,72.80
2019-01-18T20:24:23.184Z,72.90
2019-01-18T20:27:13.651Z,73.10
2019-01-18T20:29:58.359Z,72.90
2019-01-18T20:32:42.874Z,73.90
2019-01-18T20:35:43.487Z,74.70
2019-01-18T20:38:30.975Z,77.10
2019-01-18T20:41:21.592Z,76.50
2019-01-18T20:43:56.712Z,75.20
2019-01-18T20:46:32.083Z,73.40
2019-01-18T20:49:24.301Z,73.30
2019-01-18T20:52:16.037Z,74.20
2019-01-18T20:54:55.627Z,75.40
2019-01-18T20:57:37.292Z,74.50
2019-01-18T21:00:14.936Z,76.60
2019-01-18T21:03:00.560Z,75.10
2019-01-18T21:05:33.061Z,76.40
2019-01-18T21:08:18.306Z,77.40
2019-01-18T21:11:10.165Z,75.80
2019-01-18T21:13:42.763Z,75.00
2019-01-18T21:16:26.574Z,75.90
2019-01-18T21:19:13.588Z,74.60
2019-01-18T21:21:52.141Z,76.30
2019-01-18T21:24:42.062Z,75.60
2019-01-18T21:27:17.238Z,76.00
2019-01-18T21:30:01.156Z,76.90
2019-01-18T21:32:39.944Z,77.20
2019-01-18T21:35:24.667Z,79.00
2019-01-18T21:38:13.663Z,76.00
2019-01-18T21:40:52.202Z,75.20
2019-01-18T21:43:24.763Z,75.00
2019-01-18T21:46:30.251Z,76.90
2019-01-18T21:49:11.486Z,75.90
2019-01-18T21:52:11.155Z,75.90
2019-01-18T21:54:55.336Z,76.40
2019-01-18T21:57:46.136Z,78.30
2019-01-18T22:00:27.643Z,78.90
2019-01-18T22:03:04.534Z,77.30
2019-01-18T22:05:59.319Z,77.20
2019-01-18T22:08:35.336Z,77.60
2019-01-18T22:11:07.967Z,78.00
2019-01-18T22:13:55.283Z,79.60
2019-01-18T22:16:31.023Z,77.90
2019-01-18T22:19:06.532Z,78.90
2019-01-18T22:21:46.799Z,80.10
2019-01-18T22:25:02.934Z,78.90
2019-01-18T22:28:01.143Z,77.40
2019-01-18T22:30:38.806Z,77.40
2019-01-18T22:33:14.004Z,77.20
2019-01-18T22:35:52.468Z,77.90
2019-01-18T22:38:33.958Z,78.40
2019-01-18T22:41:09.431Z,78.50
2019-01-18T22:43:50.959Z,80.80
2019-01-18T22:46:44.528Z,79.80
2019-01-18T22:49:25.304Z,79.20
2019-01-18T22:52:03.627Z,78.20
2019-01-18T22:54:39.038Z,80.10
2019-01-18T22:57:32.875Z,78.50
2019-01-18T23:00:23.681Z,79.10
2019-01-18T23:02:56.355Z,77.20
2019-01-18T23:05:43.912Z,77.40
2019-01-18T23:08:34.616Z,79.20
2019-01-18T23:11:15.967Z,79.50
2019-01-18T23:14:12.587Z,78.90
2019-01-18T23:17:04.472Z,79.40
2019-01-18T23:19:48.781Z,81.20
2019-01-18T23:22:39.452Z,78.00
2019-01-18T23:25:12.111Z,78.10
2019-01-18T23:27:53.355Z,78.90
2019-01-18T23:30:28.812Z,79.80
2019-01-18T23:33:27.580Z,81.20
2019-01-18T23:36:11.815Z,79.80
2019-01-18T23:38:50.104Z,80.20
2019-01-18T23:41:42.375Z,80.40
2019-01-18T23:44:47.203Z,81.00
2019-01-18T23:47:20.727Z,79.60
2019-01-18T23:50:16.011Z,80.70
2019-01-18T23:53:18.565Z,81.00
2019-01-18T23:55:59.888Z,81.70
2019-01-18T23:58:38.163Z,82.90
